Time;durP1;ratioP1;P1;durP2;ratioP2;P2;SDS_P1;SDS_P2;PMS_P1;PMS_P2;Temp;Humidity;BMP_temperature;BMP_pressure;BME280_temperature;BME280_humidity;BME280_pressure;Samples;Min_cycle;Max_cycle;Signal;HPM_P1;HPM_P2
2022/07/06 00:00:24;;;;;;;2.42;2.15;;;;;;;14.81;66.94;99171.22;4136256;28;20022;-71
2022/07/06 00:02:25;;;;;;;4.70;2.50;;;;;;;14.81;67.11;99180.38;4133621;28;20126;-71
2022/07/06 00:04:25;;;;;;;3.55;2.50;;;;;;;14.64;67.62;99169.91;4135055;28;20031;-71
2022/07/06 00:06:26;;;;;;;4.43;2.53;;;;;;;14.46;68.33;99174.56;4134093;28;20064;-71
2022/07/06 00:08:26;;;;;;;5.65;2.60;;;;;;;14.25;69.03;99176.00;4135999;28;20508;-70
2022/07/06 00:10:27;;;;;;;5.28;2.72;;;;;;;14.10;69.86;99173.47;4134841;28;20498;-71
2022/07/06 00:12:27;;;;;;;3.42;2.75;;;;;;;14.00;69.99;99169.44;4136008;28;20041;-70
2022/07/06 00:14:27;;;;;;;3.47;2.60;;;;;;;14.05;69.95;99175.41;4137040;28;20390;-70
2022/07/06 00:16:28;;;;;;;6.50;2.67;;;;;;;13.99;70.09;99165.84;4136764;28;20072;-70
2022/07/06 00:18:28;;;;;;;3.50;2.42;;;;;;;13.98;69.71;99175.38;4135341;28;20021;-70
2022/07/06 00:20:29;;;;;;;2.97;2.33;;;;;;;14.01;69.45;99165.47;4136106;28;20532;-70
2022/07/06 00:22:29;;;;;;;3.85;2.30;;;;;;;14.04;69.47;99173.81;4136672;28;20249;-70
2022/07/06 00:24:29;;;;;;;4.68;2.42;;;;;;;14.09;68.92;99166.31;4136694;28;20021;-70
2022/07/06 00:26:30;;;;;;;4.70;2.90;;;;;;;14.11;68.72;99169.50;4135497;28;20303;-70
2022/07/06 00:28:30;;;;;;;4.47;2.60;;;;;;;14.12;68.53;99173.88;4135443;28;20079;-71
2022/07/06 00:30:31;;;;;;;5.68;2.55;;;;;;;14.11;68.17;99175.88;4135291;28;20041;-70
2022/07/06 00:32:31;;;;;;;3.30;2.67;;;;;;;14.13;68.19;99175.47;4136672;28;20320;-70
2022/07/06 00:34:31;;;;;;;2.92;2.55;;;;;;;14.19;67.26;99173.94;4136313;28;20061;-70
2022/07/06 00:36:32;;;;;;;2.88;2.50;;;;;;;14.18;67.29;99178.72;4136462;28;20033;-71
2022/07/06 00:38:32;;;;;;;3.17;2.50;;;;;;;14.28;66.51;99171.63;4136434;28;20027;-70
2022/07/06 00:40:33;;;;;;;5.10;2.60;;;;;;;14.29;66.60;99182.38;4134997;28;20042;-70
2022/07/06 00:42:44;;;;;;;3.58;1.95;;;;;;;14.30;66.76;99177.59;4137259;28;20172;-70
2022/07/06 00:44:44;;;;;;;4.30;2.33;;;;;;;14.39;66.13;99171.72;4136480;28;20144;-70
2022/07/06 00:46:45;;;;;;;3.50;2.40;;;;;;;14.38;65.85;99173.69;4136235;28;20050;-70
2022/07/06 00:48:45;;;;;;;2.90;2.20;;;;;;;14.42;66.11;99173.72;4135463;28;20037;-70
2022/07/06 00:50:45;;;;;;;3.22;2.22;;;;;;;14.41;65.39;99169.34;4136382;28;20398;-70
2022/07/06 00:52:53;;;;;;;2.78;2.03;;;;;;;14.49;65.47;99176.59;4136476;28;20037;-70
2022/07/06 00:54:54;;;;;;;4.50;2.60;;;;;;;14.47;65.13;99171.41;4135443;28;20037;-70
2022/07/06 00:56:55;;;;;;;4.45;2.30;;;;;;;14.44;65.30;99174.13;4135888;28;20034;-70
2022/07/06 00:58:55;;;;;;;8.10;2.47;;;;;;;14.42;65.90;99170.94;4134413;28;20072;-70
2022/07/06 01:00:55;;;;;;;2.70;2.40;;;;;;;14.40;65.52;99173.28;4132720;28;20025;-70
2022/07/06 01:02:56;;;;;;;4.45;2.10;;;;;;;14.42;65.50;99170.94;4135025;28;20030;-70
2022/07/06 01:04:57;;;;;;;2.97;2.50;;;;;;;14.38;66.00;99175.69;4135713;28;20109;-70
2022/07/06 01:06:58;;;;;;;4.90;2.80;;;;;;;14.30;66.53;99175.63;4136370;28;20442;-70
2022/07/06 01:08:59;;;;;;;3.28;2.50;;;;;;;14.25;66.45;99173.22;4134194;28;20431;-70
2022/07/06 01:11:00;;;;;;;4.97;3.00;;;;;;;14.17;66.79;99165.19;4134412;28;20396;-70
2022/07/06 01:13:01;;;;;;;9.00;3.37;;;;;;;14.10;67.27;99165.13;4136530;28;20036;-70
2022/07/06 01:15:03;;;;;;;6.00;3.05;;;;;;;14.02;67.67;99167.06;4136614;28;20197;-70
2022/07/06 01:17:04;;;;;;;;;;;;;;;13.98;67.60;99172.59;4136607;28;20034;-70
2022/07/06 01:19:05;;;;;;;3.83;3.03;;;;;;;13.99;68.46;99173.41;4134708;28;19983;-70
2022/07/06 01:21:12;;;;;;;4.25;2.58;;;;;;;13.94;68.05;99185.66;4135502;28;20671;-70
2022/07/06 01:23:13;;;;;;;5.00;3.10;;;;;;;13.90;68.56;99173.72;4135511;28;20037;-70
2022/07/06 01:25:14;;;;;;;5.47;2.83;;;;;;;13.86;68.86;99178.44;4136736;28;20026;-70
2022/07/06 01:27:15;;;;;;;4.90;2.97;;;;;;;13.82;68.82;99176.78;4135425;28;20046;-70
2022/07/06 01:29:15;;;;;;;4.63;2.80;;;;;;;13.77;68.17;99175.97;4133301;28;20053;-70
2022/07/06 01:31:24;;;;;;;6.18;2.75;;;;;;;13.77;68.18;99181.53;4135810;28;20045;-70
2022/07/06 01:33:24;;;;;;;4.32;2.65;;;;;;;13.78;68.44;99169.22;4135323;28;20894;-70
2022/07/06 01:35:29;;;;;;;3.83;2.60;;;;;;;13.84;68.48;99175.25;4136433;28;20378;-70
2022/07/06 01:37:29;;;;;;;3.53;2.65;;;;;;;13.79;69.28;99175.59;4134249;28;20635;-70
2022/07/06 01:39:29;;;;;;;2.70;2.30;;;;;;;13.73;69.92;99177.09;4134827;28;20030;-70
2022/07/06 01:41:29;;;;;;;6.28;2.70;;;;;;;13.62;70.26;99178.97;4136852;28;20555;-70
2022/07/06 01:43:30;;;;;;;3.38;2.70;;;;;;;13.58;70.53;99178.16;4135601;28;20030;-70
2022/07/06 01:45:32;;;;;;;4.47;2.55;;;;;;;13.62;70.37;99177.00;4136354;28;20030;-70
2022/07/06 01:47:35;;;;;;;2.60;2.40;;;;;;;13.63;70.20;99166.69;4134455;28;20040;-70
2022/07/06 01:49:36;;;;;;;3.25;2.40;;;;;;;13.60;70.91;99170.22;4135085;28;20309;-70
2022/07/06 01:51:36;;;;;;;4.15;2.80;;;;;;;13.58;71.10;99175.38;4136416;28;20076;-70
2022/07/06 01:53:36;;;;;;;7.13;2.55;;;;;;;13.57;71.08;99182.91;4135424;28;20030;-70
2022/07/06 01:55:37;;;;;;;3.92;2.55;;;;;;;13.60;70.94;99179.38;4135987;28;20034;-70
2022/07/06 01:57:37;;;;;;;4.13;2.70;;;;;;;13.55;71.20;99181.69;4135087;28;20115;-70
2022/07/06 01:59:37;;;;;;;4.53;2.90;;;;;;;13.45;71.47;99178.41;4135338;28;20037;-70
2022/07/06 02:01:37;;;;;;;3.47;2.45;;;;;;;13.46;71.15;99176.44;4134757;28;20034;-70
2022/07/06 02:03:38;;;;;;;3.40;2.65;;;;;;;13.36;71.70;99180.69;4135772;28;20073;-70
2022/07/06 02:05:38;;;;;;;3.10;2.80;;;;;;;13.30;72.04;99175.84;4135988;28;20042;-70
2022/07/06 02:07:39;;;;;;;3.47;2.80;;;;;;;13.28;71.80;99175.44;4134468;28;20040;-70
2022/07/06 02:09:39;;;;;;;5.88;2.90;;;;;;;13.31;71.63;99180.22;4136712;28;20136;-70
2022/07/06 02:11:39;;;;;;;3.13;2.67;;;;;;;13.22;71.71;99166.63;4138594;28;20034;-70
2022/07/06 02:13:40;;;;;;;4.53;3.03;;;;;;;13.22;72.13;99169.41;4138730;28;20373;-70
2022/07/06 02:15:40;;;;;;;3.33;2.58;;;;;;;13.19;71.41;99170.97;4137688;28;20369;-70
2022/07/06 02:17:41;;;;;;;2.88;2.67;;;;;;;13.15;72.02;99175.63;4137609;28;20045;-70
2022/07/06 02:19:41;;;;;;;4.05;2.95;;;;;;;13.12;72.31;99181.97;4138125;28;20413;-70
2022/07/06 02:21:41;;;;;;;6.30;2.83;;;;;;;13.10;72.50;99180.75;4138404;28;20034;-70
2022/07/06 02:23:42;;;;;;;3.15;2.67;;;;;;;13.12;72.80;99184.75;4137008;28;20549;-70
2022/07/06 02:25:43;;;;;;;4.95;2.83;;;;;;;13.09;72.75;99193.03;4137861;28;20037;-70
2022/07/06 02:27:43;;;;;;;8.93;3.28;;;;;;;13.09;73.27;99181.94;4138683;28;20056;-70
2022/07/06 02:29:43;;;;;;;7.32;3.75;;;;;;;13.06;73.20;99186.25;4137909;28;20073;-70
2022/07/06 02:31:44;;;;;;;5.20;3.17;;;;;;;13.11;73.29;99187.91;4138462;28;20052;-70
2022/07/06 02:33:44;;;;;;;4.53;3.53;;;;;;;13.05;73.40;99184.66;4135866;28;20034;-70
2022/07/06 02:35:44;;;;;;;3.35;3.05;;;;;;;13.06;73.44;99189.03;4136052;28;20029;-70
2022/07/06 02:37:45;;;;;;;5.10;3.25;;;;;;;13.08;73.46;99186.69;4137591;28;20573;-70
2022/07/06 02:39:45;;;;;;;5.75;3.67;;;;;;;13.12;73.54;99181.16;4136892;28;20036;-70
2022/07/06 02:41:45;;;;;;;13.20;3.63;;;;;;;13.15;73.36;99175.63;4138033;28;20072;-70
2022/07/06 02:43:46;;;;;;;3.85;3.03;;;;;;;13.19;73.04;99178.47;4137674;28;20038;-70
2022/07/06 02:45:46;;;;;;;4.40;3.20;;;;;;;13.20;72.92;99182.88;4137800;28;20453;-70
2022/07/06 02:47:46;;;;;;;6.45;3.58;;;;;;;13.19;73.14;99184.03;4136464;28;20036;-70
2022/07/06 02:49:47;;;;;;;4.97;3.38;;;;;;;13.21;73.24;99184.47;4136239;28;20520;-70
2022/07/06 02:51:47;;;;;;;4.90;3.50;;;;;;;13.23;73.25;99196.00;4137402;28;20030;-70
2022/07/06 02:53:47;;;;;;;7.15;3.65;;;;;;;13.22;72.74;99197.19;4137876;28;20080;-70
2022/07/06 02:55:48;;;;;;;4.68;2.90;;;;;;;13.25;72.58;99195.66;4135658;28;20262;-70
2022/07/06 02:57:48;;;;;;;4.32;3.40;;;;;;;13.28;72.94;99194.88;4137732;28;20207;-70
2022/07/06 02:59:49;;;;;;;4.88;3.08;;;;;;;13.30;72.49;99195.31;4136053;28;20030;-70
2022/07/06 03:01:49;;;;;;;8.75;3.45;;;;;;;13.35;72.22;99201.34;4136928;28;20077;-70
2022/07/06 03:03:50;;;;;;;9.50;3.67;;;;;;;13.33;72.38;99198.13;4135601;28;20037;-70
2022/07/06 03:05:50;;;;;;;5.18;3.80;;;;;;;13.34;72.23;99198.94;4135822;28;20474;-70
2022/07/06 03:07:50;;;;;;;6.72;3.30;;;;;;;13.32;72.47;99201.28;4135907;28;20472;-70
2022/07/06 03:09:51;;;;;;;7.35;3.42;;;;;;;13.26;72.92;99194.47;4135699;28;20525;-70
2022/07/06 03:11:52;;;;;;;4.82;3.53;;;;;;;13.21;72.79;99196.38;4136937;28;20091;-70
2022/07/06 03:13:52;;;;;;;4.53;3.28;;;;;;;13.19;73.09;99200.69;4134271;28;20026;-70
2022/07/06 03:15:52;;;;;;;3.50;2.95;;;;;;;13.23;72.88;99207.13;4136621;28;20080;-70
2022/07/06 03:17:53;;;;;;;5.80;2.90;;;;;;;13.23;73.17;99209.09;4136479;28;20026;-70
2022/07/06 03:19:53;;;;;;;5.07;3.55;;;;;;;13.25;73.14;99206.78;4133570;28;20088;-70
2022/07/06 03:21:53;;;;;;;8.55;3.33;;;;;;;13.25;72.84;99204.78;4134578;28;20049;-70
2022/07/06 03:23:54;;;;;;;3.80;3.28;;;;;;;13.25;73.36;99217.88;4133799;28;20030;-70
2022/07/06 03:25:54;;;;;;;4.88;3.22;;;;;;;13.21;73.58;99215.84;4136049;28;20081;-70
2022/07/06 03:27:54;;;;;;;6.03;3.35;;;;;;;13.18;73.54;99208.25;4135557;28;20037;-70
2022/07/06 03:29:55;;;;;;;4.03;2.97;;;;;;;13.17;73.55;99208.63;4133758;28;20026;-70
2022/07/06 03:31:55;;;;;;;4.57;3.80;;;;;;;13.13;74.01;99218.88;4136080;28;20022;-70
2022/07/06 03:33:55;;;;;;;4.55;3.70;;;;;;;13.08;74.31;99217.25;4135747;28;20038;-70
2022/07/06 03:35:57;;;;;;;5.18;3.35;;;;;;;13.08;74.80;99219.22;4137072;28;20104;-70
2022/07/06 03:37:57;;;;;;;4.78;3.30;;;;;;;13.09;74.69;99221.63;4135374;28;20367;-70
2022/07/06 03:39:57;;;;;;;3.90;3.42;;;;;;;13.08;74.56;99220.03;4137222;28;20044;-70
2022/07/06 03:41:58;;;;;;;4.53;3.20;;;;;;;13.12;74.37;99220.06;4136645;28;20049;-70
2022/07/06 03:43:58;;;;;;;4.35;3.88;;;;;;;13.12;74.65;99222.84;4137145;28;20065;-70
2022/07/06 03:45:59;;;;;;;6.00;3.70;;;;;;;13.14;75.00;99218.50;4138055;28;20029;-70
2022/07/06 03:47:59;;;;;;;5.28;3.45;;;;;;;13.16;74.83;99215.38;4136122;28;20115;-70
2022/07/06 03:49:59;;;;;;;4.80;3.80;;;;;;;13.23;74.83;99218.22;4136617;28;20022;-70
2022/07/06 03:52:00;;;;;;;6.40;3.67;;;;;;;13.16;74.45;99216.16;4134539;28;20138;-70
2022/07/06 03:54:00;;;;;;;5.50;3.65;;;;;;;13.14;74.95;99209.34;4136420;28;20026;-70
2022/07/06 03:58:19;;;;;;;6.93;3.67;;;;;;;13.20;75.20;99216.22;4135400;28;20049;-70
2022/07/06 04:00:20;;;;;;;5.93;3.20;;;;;;;13.17;75.04;99225.28;4136024;28;20409;-70
2022/07/06 04:02:20;;;;;;;5.13;3.50;;;;;;;13.21;74.75;99224.19;4131999;28;20402;-70
2022/07/06 04:04:20;;;;;;;6.93;3.88;;;;;;;13.26;74.97;99228.63;4136908;28;20044;-70
2022/07/06 04:06:21;;;;;;;4.00;3.38;;;;;;;13.27;74.62;99221.88;4137442;28;20490;-70
2022/07/06 04:08:21;;;;;;;5.75;3.05;;;;;;;13.30;74.82;99226.66;4136662;28;20044;-70
2022/07/06 04:10:21;;;;;;;19.98;3.75;;;;;;;13.36;74.80;99227.13;4136457;28;20030;-70
2022/07/06 04:12:22;;;;;;;4.03;3.25;;;;;;;13.40;74.73;99220.44;4137339;28;20525;-70
2022/07/06 04:14:22;;;;;;;3.88;3.28;;;;;;;13.46;74.22;99220.91;4136436;28;20105;-70
2022/07/06 04:16:22;;;;;;;4.07;3.67;;;;;;;13.47;74.44;99226.06;4136607;28;20049;-70
2022/07/06 04:18:23;;;;;;;4.18;3.20;;;;;;;13.47;74.60;99216.94;4136061;28;20453;-70
2022/07/06 04:20:27;;;;;;;4.82;3.38;;;;;;;13.46;74.97;99227.25;4136747;28;20348;-70
2022/07/06 04:22:28;;;;;;;5.80;3.58;;;;;;;13.47;74.96;99222.50;4134880;28;20361;-70
2022/07/06 04:24:28;;;;;;;4.97;3.55;;;;;;;13.53;74.89;99218.22;4136299;28;20065;-70
2022/07/06 04:26:28;;;;;;;4.78;3.28;;;;;;;13.61;74.25;99225.44;4137706;28;20033;-70
2022/07/06 04:28:29;;;;;;;5.82;3.35;;;;;;;13.75;74.20;99228.41;4136027;28;20037;-70
2022/07/06 04:30:29;;;;;;;5.82;3.70;;;;;;;13.73;74.24;99225.16;4136653;28;20033;-70
2022/07/06 04:32:30;;;;;;;6.55;3.55;;;;;;;13.79;73.63;99228.41;4136151;28;20032;-70
2022/07/06 04:34:30;;;;;;;5.35;3.47;;;;;;;13.89;73.99;99232.50;4136204;28;20330;-70
2022/07/06 04:36:30;;;;;;;5.00;3.50;;;;;;;13.88;73.35;99231.69;4137917;28;20069;-70
2022/07/06 04:38:31;;;;;;;4.45;3.00;;;;;;;13.98;73.92;99232.97;4133447;28;20112;-70
2022/07/06 04:40:31;;;;;;;5.22;3.33;;;;;;;14.01;73.80;99237.78;4135850;28;20497;-70
2022/07/06 04:42:32;;;;;;;6.15;3.50;;;;;;;14.02;73.70;99231.03;4137918;28;20042;-70
2022/07/06 04:44:32;;;;;;;8.38;3.80;;;;;;;14.03;73.84;99232.63;4135215;28;20136;-70
2022/07/06 04:46:32;;;;;;;9.23;3.15;;;;;;;14.09;74.15;99241.44;4135285;28;20128;-70
2022/07/06 04:48:36;;;;;;;8.98;3.45;;;;;;;14.06;74.17;99237.44;4136429;28;20059;-70
2022/07/06 04:50:36;;;;;;;4.03;2.88;;;;;;;14.04;73.84;99240.59;4135209;28;20026;-70
2022/07/06 04:52:37;;;;;;;5.70;3.13;;;;;;;14.07;74.22;99244.63;4082196;28;20510;-70
2022/07/06 04:54:37;;;;;;;6.00;2.92;;;;;;;14.05;74.00;99249.75;4136493;28;20378;-70
2022/07/06 04:56:37;;;;;;;3.58;3.00;;;;;;;14.06;74.63;99249.34;4135628;28;20070;-70
2022/07/06 04:58:38;;;;;;;4.68;2.97;;;;;;;14.11;74.19;99253.78;4135580;28;20120;-70
2022/07/06 05:00:38;;;;;;;4.97;3.10;;;;;;;14.16;74.25;99252.66;4136305;28;20413;-70
2022/07/06 05:02:38;;;;;;;9.93;2.83;;;;;;;14.18;73.88;99251.06;4135290;28;20103;-70
2022/07/06 05:04:39;;;;;;;3.47;2.90;;;;;;;14.23;73.82;99255.47;4135354;28;20302;-70
2022/07/06 05:06:39;;;;;;;5.47;3.45;;;;;;;14.22;73.66;99249.09;4137361;28;20112;-70
2022/07/06 05:08:40;;;;;;;4.90;2.90;;;;;;;14.32;73.03;99247.63;4136697;28;20135;-70
2022/07/06 05:10:40;;;;;;;3.80;3.03;;;;;;;14.34;73.32;99248.84;4136109;28;20032;-70
2022/07/06 05:12:40;;;;;;;6.15;3.45;;;;;;;14.37;73.96;99250.03;4134236;28;20058;-70
2022/07/06 05:14:41;;;;;;;3.50;3.20;;;;;;;14.40;73.42;99249.28;4136130;28;20128;-70
2022/07/06 05:16:41;;;;;;;4.10;2.85;;;;;;;14.41;73.47;99250.09;4136149;28;20370;-70
2022/07/06 05:18:41;;;;;;;3.72;2.70;;;;;;;14.49;73.42;99257.34;4135676;28;20108;-70
2022/07/06 05:20:42;;;;;;;4.25;2.90;;;;;;;14.57;73.79;99253.44;4135732;28;20434;-70
2022/07/06 05:22:43;;;;;;;4.20;3.35;;;;;;;14.67;73.76;99263.84;4134106;28;20046;-70
2022/07/06 05:24:43;;;;;;;4.65;3.47;;;;;;;14.78;73.16;99256.34;4135672;28;20489;-70
2022/07/06 05:26:43;;;;;;;8.50;3.83;;;;;;;14.84;71.87;99277.09;4137093;28;20026;-70
2022/07/06 05:28:44;;;;;;;7.45;3.35;;;;;;;14.83;71.89;99271.94;4133988;28;20182;-70
2022/07/06 05:30:44;;;;;;;6.90;3.55;;;;;;;14.83;71.53;99267.16;4135493;28;20061;-70
2022/07/06 05:32:45;;;;;;;4.13;2.83;;;;;;;14.92;71.93;99272.38;4135406;28;20406;-70
2022/07/06 05:34:45;;;;;;;6.75;3.10;;;;;;;15.12;72.08;99272.91;4137019;28;20036;-70
2022/07/06 05:36:45;;;;;;;9.70;3.10;;;;;;;15.06;71.32;99271.66;4134018;28;20042;-70
2022/07/06 05:38:46;;;;;;;4.70;2.70;;;;;;;15.14;71.29;99276.91;4133986;28;20408;-70
2022/07/06 05:40:46;;;;;;;7.13;2.92;;;;;;;15.06;71.14;99268.88;4136241;28;20030;-70
2022/07/06 05:42:46;;;;;;;4.28;2.63;;;;;;;15.10;71.64;99269.72;4136054;28;20029;-70
2022/07/06 05:44:47;;;;;;;4.90;2.63;;;;;;;15.11;71.62;99277.66;4137705;28;20327;-70
2022/07/06 05:46:47;;;;;;;5.40;2.88;;;;;;;15.12;72.15;99272.91;4138358;28;20088;-70
2022/07/06 05:51:07;;;;;;;4.07;3.05;;;;;;;15.11;72.28;99277.66;4139053;28;20057;-70
2022/07/06 05:53:07;;;;;;;4.80;2.70;;;;;;;15.15;71.93;99272.94;4139400;28;20029;-70
2022/07/06 05:55:08;;;;;;;4.55;2.45;;;;;;;15.20;71.65;99263.38;4137755;28;20042;-70
2022/07/06 05:57:09;;;;;;;3.72;2.72;;;;;;;15.31;71.63;99277.41;4137848;28;20040;-70
2022/07/06 05:59:09;;;;;;;3.42;2.60;;;;;;;15.37;72.19;99270.25;4136032;28;20509;-70
2022/07/06 06:01:10;;;;;;;4.63;2.80;;;;;;;15.34;71.20;99271.84;4139973;28;20034;-70
2022/07/06 06:03:10;;;;;;;3.20;2.67;;;;;;;15.43;70.87;99265.91;4137150;28;20230;-70
2022/07/06 06:05:11;;;;;;;4.13;2.55;;;;;;;15.55;70.93;99264.75;4136770;28;20501;-70
2022/07/06 06:07:11;;;;;;;4.35;3.08;;;;;;;15.59;70.71;99263.56;4139949;28;20479;-70
2022/07/06 06:09:11;;;;;;;4.35;2.90;;;;;;;15.41;71.41;99271.06;4138360;28;20065;-70
2022/07/06 06:11:12;;;;;;;4.65;3.13;;;;;;;15.46;71.22;99270.69;4139254;28;20489;-70
2022/07/06 06:13:12;;;;;;;4.60;2.78;;;;;;;15.51;71.30;99272.31;4138403;28;20033;-70
2022/07/06 06:15:12;;;;;;;3.53;2.60;;;;;;;15.56;71.08;99272.75;4139747;28;20450;-70
2022/07/06 06:17:13;;;;;;;5.35;2.90;;;;;;;15.68;71.34;99280.78;4138154;28;20030;-70
2022/07/06 06:19:13;;;;;;;5.93;2.75;;;;;;;15.90;70.85;99280.84;4138774;28;20129;-70
2022/07/06 06:21:13;;;;;;;7.68;2.78;;;;;;;16.04;69.91;99280.06;4139460;28;20221;-70
2022/07/06 06:23:14;;;;;;;4.80;2.80;;;;;;;16.07;69.64;99277.31;4138610;28;20028;-70
2022/07/06 06:25:36;;;;;;;4.50;2.67;;;;;;;16.15;69.95;99278.91;4138476;28;20458;-70
2022/07/06 06:27:36;;;;;;;4.15;2.63;;;;;;;16.14;69.60;99279.31;4139203;28;20430;-70
2022/07/06 06:29:36;;;;;;;4.75;2.80;;;;;;;16.14;69.64;99285.69;4137937;28;20076;-70
2022/07/06 06:31:37;;;;;;;6.35;3.00;;;;;;;16.13;69.82;99283.28;4139849;28;20037;-70
2022/07/06 06:33:37;;;;;;;5.32;2.90;;;;;;;16.16;69.66;99282.50;4139393;28;20034;-70
2022/07/06 06:35:42;;;;;;;4.45;2.30;;;;;;;16.22;69.06;99298.47;4139143;28;20301;-70
2022/07/06 06:37:43;;;;;;;2.88;2.40;;;;;;;16.02;69.07;99284.06;4138764;28;20029;-70
2022/07/06 06:39:43;;;;;;;5.20;2.45;;;;;;;15.92;69.05;99292.41;4136682;28;20494;-70
2022/07/06 06:41:43;;;;;;;4.90;2.25;;;;;;;16.02;68.63;99300.00;4138668;28;20038;-70
2022/07/06 06:43:45;;;;;;;5.10;2.53;;;;;;;15.82;69.92;99305.16;4139166;28;20408;-70
2022/07/06 06:45:46;;;;;;;7.70;2.45;;;;;;;15.75;69.56;99304.31;4139289;28;20202;-70
2022/07/06 06:47:46;;;;;;;5.10;2.13;;;;;;;15.88;69.66;99295.19;4138973;28;20060;-70
2022/07/06 06:49:47;;;;;;;3.90;2.00;;;;;;;15.98;69.13;99297.22;4137319;28;20288;-70
2022/07/06 06:51:47;;;;;;;2.85;2.55;;;;;;;15.88;68.97;99302.75;4138262;28;20049;-70
2022/07/06 06:53:48;;;;;;;2.38;1.83;;;;;;;15.94;69.26;99306.75;4137673;28;20049;-70
2022/07/06 06:55:48;;;;;;;2.50;1.85;;;;;;;15.75;69.54;99302.31;4137391;28;20026;-71
2022/07/06 06:57:48;;;;;;;4.60;2.50;;;;;;;15.88;69.37;99319.50;4138226;28;20037;-70
2022/07/06 06:59:49;;;;;;;3.63;2.08;;;;;;;15.73;69.47;99307.50;4136574;28;20094;-70
2022/07/06 07:01:49;;;;;;;6.78;3.30;;;;;;;15.69;69.56;99301.91;4138343;28;20049;-70
2022/07/06 07:03:50;;;;;;;3.72;2.00;;;;;;;15.88;69.29;99309.13;4138275;28;20471;-70
2022/07/06 07:05:51;;;;;;;4.53;2.20;;;;;;;15.95;69.00;99300.78;4136702;28;20048;-70
2022/07/06 07:07:51;;;;;;;3.85;2.53;;;;;;;16.17;68.76;99298.84;4138632;28;20089;-70
2022/07/06 07:09:51;;;;;;;2.95;2.15;;;;;;;16.15;67.54;99308.84;4138249;28;20033;-70
2022/07/06 07:11:52;;;;;;;4.78;2.20;;;;;;;16.07;67.20;99305.22;4138677;28;20145;-70
2022/07/06 07:13:52;;;;;;;3.65;2.20;;;;;;;15.94;67.83;99303.97;4137924;28;20041;-70
2022/07/06 07:15:52;;;;;;;4.85;2.10;;;;;;;16.01;67.57;99304.78;4138542;28;20034;-70
2022/07/06 07:17:53;;;;;;;6.25;2.50;;;;;;;16.13;67.33;99309.19;4136781;28;20109;-71
2022/07/06 07:19:53;;;;;;;2.58;2.10;;;;;;;16.24;66.29;99318.41;4137460;28;20033;-71
2022/07/06 07:21:53;;;;;;;7.18;2.20;;;;;;;16.16;66.44;99308.44;4138171;28;20030;-71
2022/07/06 07:23:54;;;;;;;4.05;2.13;;;;;;;16.04;66.68;99294.81;4136888;28;20366;-70
2022/07/06 07:25:54;;;;;;;5.57;3.92;;;;;;;16.29;67.37;99295.66;4137889;28;20474;-70
2022/07/06 07:27:55;;;;;;;6.22;2.15;;;;;;;16.49;65.74;99300.91;4137444;28;20069;-70
2022/07/06 07:29:55;;;;;;;5.93;2.42;;;;;;;16.40;64.74;99294.91;4137385;28;20030;-70
2022/07/06 07:31:55;;;;;;;4.72;2.20;;;;;;;16.75;65.91;99306.13;4137573;28;20481;-70
2022/07/06 07:33:58;;;;;;;4.05;2.45;;;;;;;16.81;63.94;99300.94;4138272;28;20028;-70
2022/07/06 07:35:58;;;;;;;2.40;2.20;;;;;;;16.66;64.21;99308.50;4138205;28;20031;-71
2022/07/06 07:37:59;;;;;;;7.03;2.33;;;;;;;16.80;63.80;99308.53;4137503;28;20056;-70
2022/07/06 07:39:59;;;;;;;5.60;2.35;;;;;;;16.78;63.20;99313.69;4137021;28;20637;-70
2022/07/06 07:41:59;;;;;;;3.63;2.10;;;;;;;16.46;63.84;99315.66;4137044;28;20026;-70
2022/07/06 07:44:00;;;;;;;6.47;2.20;;;;;;;16.76;63.09;99316.09;4137667;28;20425;-70
2022/07/06 07:46:00;;;;;;;5.25;2.42;;;;;;;16.89;61.71;99310.13;4137473;28;20029;-70
2022/07/06 07:48:01;;;;;;;4.53;2.58;;;;;;;16.85;61.91;99319.28;4137086;28;20038;-70
2022/07/06 07:50:01;;;;;;;3.83;2.15;;;;;;;16.82;61.82;99319.31;4137733;28;20473;-70
2022/07/06 07:52:02;;;;;;;4.28;2.28;;;;;;;16.78;61.50;99308.09;4137305;28;20030;-70
2022/07/06 07:54:02;;;;;;;4.55;1.90;;;;;;;17.04;60.45;99315.28;4137489;28;20466;-70
2022/07/06 07:56:03;;;;;;;4.40;1.90;;;;;;;16.96;60.11;99313.69;4136199;28;20112;-70
2022/07/06 07:58:04;;;;;;;4.82;1.98;;;;;;;16.81;60.08;99312.91;4138681;28;20042;-70
2022/07/06 08:00:05;;;;;;;3.40;1.63;;;;;;;16.65;60.26;99311.69;4136636;28;20025;-70
2022/07/06 08:02:06;;;;;;;3.85;1.88;;;;;;;16.72;60.94;99322.91;4138024;28;20038;-70
2022/07/06 08:04:06;;;;;;;3.17;1.85;;;;;;;16.81;61.13;99315.72;4137899;28;20457;-71
2022/07/06 08:06:07;;;;;;;2.95;1.70;;;;;;;17.09;60.79;99320.47;4136138;28;20576;-71
2022/07/06 08:08:07;;;;;;;7.55;1.95;;;;;;;17.21;60.45;99308.09;4137441;28;20061;-70
2022/07/06 08:10:09;;;;;;;4.22;2.40;;;;;;;16.95;60.64;99308.50;4135394;28;20101;-70
2022/07/06 08:12:10;;;;;;;4.95;2.30;;;;;;;17.22;60.93;99303.28;4137135;28;20343;-71
2022/07/06 08:14:11;;;;;;;3.40;2.17;;;;;;;16.99;60.02;99300.91;4137323;28;20037;-71
2022/07/06 08:16:11;;;;;;;5.53;2.75;;;;;;;16.87;60.23;99312.50;4137188;28;20423;-71
2022/07/06 08:18:12;;;;;;;5.00;2.63;;;;;;;16.92;60.98;99306.53;4135402;28;20356;-70
2022/07/06 08:20:12;;;;;;;3.15;2.60;;;;;;;17.00;59.85;99308.91;4135574;28;20286;-70
2022/07/06 08:22:12;;;;;;;3.92;2.47;;;;;;;17.00;59.13;99302.50;4137214;28;20025;-71
2022/07/06 08:24:13;;;;;;;5.40;2.95;;;;;;;16.99;58.60;99314.91;4137501;28;20029;-70
2022/07/06 08:26:13;;;;;;;3.13;2.33;;;;;;;17.08;58.53;99307.69;4136531;28;20430;-70
2022/07/06 08:28:14;;;;;;;5.57;2.85;;;;;;;17.32;58.14;99306.06;4137539;28;20116;-70
2022/07/06 08:30:14;;;;;;;6.18;2.60;;;;;;;17.47;57.66;99306.03;4136161;28;20030;-70
2022/07/06 08:32:15;;;;;;;3.53;2.40;;;;;;;17.69;57.11;99296.31;4136086;28;20033;-71
2022/07/06 08:34:15;;;;;;;2.90;2.15;;;;;;;17.77;57.05;99308.31;4137265;28;20034;-71
2022/07/06 08:36:15;;;;;;;6.00;2.65;;;;;;;17.59;55.34;99303.56;4137782;28;20405;-71
2022/07/06 08:38:16;;;;;;;10.98;3.08;;;;;;;17.27;55.40;99305.66;4138018;28;20033;-71
2022/07/06 08:40:16;;;;;;;5.75;2.40;;;;;;;17.37;56.60;99305.63;4135060;28;20026;-69
2022/07/06 08:42:17;;;;;;;4.85;2.70;;;;;;;17.55;55.56;99299.19;4136950;28;20030;-70
2022/07/06 08:44:18;;;;;;;4.93;2.13;;;;;;;17.84;54.66;99303.50;4137188;28;20037;-70
2022/07/06 08:46:19;;;;;;;4.18;2.40;;;;;;;17.96;53.82;99291.06;4136585;28;20041;-70
2022/07/06 08:48:23;;;;;;;5.45;2.35;;;;;;;17.84;52.78;99309.09;4136155;28;20072;-70
2022/07/06 08:50:25;;;;;;;6.28;2.30;;;;;;;18.00;52.75;99299.41;4137319;28;20033;-70
2022/07/06 08:52:25;;;;;;;3.90;1.98;;;;;;;18.25;51.41;99300.06;4137282;28;20416;-71
2022/07/06 08:54:27;;;;;;;3.10;2.30;;;;;;;18.48;52.53;99297.50;4136697;28;20045;-71
2022/07/06 08:56:28;;;;;;;3.10;2.13;;;;;;;18.29;51.85;99302.84;4137213;28;20092;-71
2022/07/06 08:58:28;;;;;;;3.15;2.20;;;;;;;18.34;52.30;99313.63;4135426;28;20049;-71
2022/07/06 09:00:31;;;;;;;7.35;2.10;;;;;;;18.44;51.20;99307.16;4137248;28;20405;-70
2022/07/06 09:02:32;;;;;;;3.35;2.00;;;;;;;18.23;50.43;99299.69;4135934;28;20037;-70
2022/07/06 09:04:33;;;;;;;6.93;1.90;;;;;;;17.95;52.11;99300.63;4136184;28;20026;-70
2022/07/06 09:06:35;;;;;;;4.38;1.80;;;;;;;17.77;52.62;99303.53;4136548;28;20034;-70
2022/07/06 09:08:39;;;;;;;2.45;1.50;;;;;;;17.83;53.41;99301.91;4135541;28;20305;-70
2022/07/06 09:10:39;;;;;;;4.88;2.30;;;;;;;17.81;53.41;99314.72;4137480;28;20026;-70
2022/07/06 09:12:40;;;;;;;2.60;1.70;;;;;;;17.88;52.66;99306.28;4136037;28;20034;-71
2022/07/06 09:14:40;;;;;;;5.50;2.00;;;;;;;17.90;53.36;99313.06;4137896;28;20034;-71
2022/07/06 09:16:41;;;;;;;5.30;2.10;;;;;;;17.61;53.40;99314.34;4136307;28;20026;-71
2022/07/06 09:18:46;;;;;;;4.22;2.00;;;;;;;17.54;53.78;99319.97;4135646;28;20340;-71
2022/07/06 09:20:47;;;;;;;4.00;1.80;;;;;;;17.40;53.70;99313.22;4140170;28;20474;-71
2022/07/06 09:22:47;;;;;;;5.85;4.00;;;;;;;17.49;53.42;99312.00;4140064;28;20142;-71
2022/07/06 09:24:50;;;;;;;1.98;1.80;;;;;;;17.69;52.97;99313.13;4139967;28;20029;-71
2022/07/06 09:26:50;;;;;;;3.72;1.90;;;;;;;17.85;51.77;99313.47;4138759;28;20034;-71
2022/07/06 09:28:51;;;;;;;2.42;1.88;;;;;;;17.78;52.31;99299.50;4139332;28;20128;-71
2022/07/06 09:30:54;;;;;;;3.92;1.70;;;;;;;18.07;53.22;99297.38;4140145;28;20029;-70
2022/07/06 09:32:57;;;;;;;5.20;2.03;;;;;;;18.28;50.64;99290.84;4138739;28;20716;-70